sensor_id;sensor_type;location;lat;lon;timestamp;pressure;altitude;pressure_sealevel;temperature;humidity
77149;BME280;66122;47.130;16.844;2023-03-29T00:06:47;100647.66;;;-0.14;87.34
77149;BME280;66122;47.130;16.844;2023-03-29T00:16:57;100651.88;;;-0.42;85.70
77149;BME280;66122;47.130;16.844;2023-03-29T00:27:08;100650.06;;;-0.60;84.89
77149;BME280;66122;47.130;16.844;2023-03-29T00:37:17;100635.09;;;-0.97;87.15
77149;BME280;66122;47.130;16.844;2023-03-29T00:47:30;100626.50;;;-0.87;86.24
77149;BME280;66122;47.130;16.844;2023-03-29T00:57:37;100625.84;;;-0.51;84.69
77149;BME280;66122;47.130;16.844;2023-03-29T01:07:49;100610.22;;;-0.42;83.94
77149;BME280;66122;47.130;16.844;2023-03-29T01:17:55;100604.94;;;-0.66;87.16
77149;BME280;66122;47.130;16.844;2023-03-29T01:28:21;100608.28;;;-0.86;89.41
77149;BME280;66122;47.130;16.844;2023-03-29T01:38:39;100591.94;;;-0.57;86.99
77149;BME280;66122;47.130;16.844;2023-03-29T01:48:55;100601.59;;;-0.36;86.07
77149;BME280;66122;47.130;16.844;2023-03-29T01:59:06;100605.03;;;-0.45;88.24
77149;BME280;66122;47.130;16.844;2023-03-29T02:09:11;100598.91;;;-0.56;87.03
77149;BME280;66122;47.130;16.844;2023-03-29T02:19:16;100604.09;;;-0.56;84.66
77149;BME280;66122;47.130;16.844;2023-03-29T02:29:20;100610.84;;;-0.92;85.98
77149;BME280;66122;47.130;16.844;2023-03-29T02:39:26;100609.00;;;-1.12;86.60
77149;BME280;66122;47.130;16.844;2023-03-29T02:49:36;100607.34;;;-1.00;85.31
77149;BME280;66122;47.130;16.844;2023-03-29T02:59:41;100608.97;;;-1.14;85.52
77149;BME280;66122;47.130;16.844;2023-03-29T03:09:45;100622.91;;;-1.06;84.24
77149;BME280;66122;47.130;16.844;2023-03-29T03:19:51;100621.84;;;-1.29;84.64
77149;BME280;66122;47.130;16.844;2023-03-29T03:29:58;100614.94;;;-1.27;86.63
77149;BME280;66122;47.130;16.844;2023-03-29T03:40:26;100622.97;;;-0.92;83.62
77149;BME280;66122;47.130;16.844;2023-03-29T03:50:36;100635.53;;;-1.53;85.58
77149;BME280;66122;47.130;16.844;2023-03-29T04:00:48;100623.63;;;-1.25;82.34
77149;BME280;66122;47.130;16.844;2023-03-29T04:11:07;100606.56;;;-0.88;82.66
77149;BME280;66122;47.130;16.844;2023-03-29T04:21:12;100596.19;;;-0.81;83.74
77149;BME280;66122;47.130;16.844;2023-03-29T04:31:20;100583.16;;;-0.87;85.27
77149;BME280;66122;47.130;16.844;2023-03-29T04:41:30;100589.38;;;-0.48;81.90
77149;BME280;66122;47.130;16.844;2023-03-29T04:51:49;100580.69;;;-0.59;82.92
77149;BME280;66122;47.130;16.844;2023-03-29T05:01:56;100582.47;;;-0.43;81.08
77149;BME280;66122;47.130;16.844;2023-03-29T05:12:00;100584.31;;;-0.15;81.83
77149;BME280;66122;47.130;16.844;2023-03-29T05:22:08;100580.03;;;0.31;79.00
77149;BME280;66122;47.130;16.844;2023-03-29T05:32:12;100556.59;;;0.42;78.29
77149;BME280;66122;47.130;16.844;2023-03-29T05:42:15;100536.53;;;0.85;75.81
77149;BME280;66122;47.130;16.844;2023-03-29T05:52:27;100494.84;;;0.67;73.57
77149;BME280;66122;47.130;16.844;2023-03-29T06:02:30;100555.66;;;0.92;73.90
77149;BME280;66122;47.130;16.844;2023-03-29T06:12:34;100541.75;;;0.81;72.29
77149;BME280;66122;47.130;16.844;2023-03-29T06:22:38;100551.19;;;1.30;72.57
77149;BME280;66122;47.130;16.844;2023-03-29T06:32:41;100549.22;;;1.75;71.12
77149;BME280;66122;47.130;16.844;2023-03-29T06:42:57;100562.25;;;1.87;71.55
77149;BME280;66122;47.130;16.844;2023-03-29T06:53:20;100503.03;;;1.81;73.34
77149;BME280;66122;47.130;16.844;2023-03-29T07:03:30;100550.56;;;3.25;70.94
77149;BME280;66122;47.130;16.844;2023-03-29T07:13:37;100558.66;;;3.76;65.75
77149;BME280;66122;47.130;16.844;2023-03-29T07:23:43;100565.88;;;4.20;63.64
77149;BME280;66122;47.130;16.844;2023-03-29T07:33:47;100558.03;;;4.74;60.06
77149;BME280;66122;47.130;16.844;2023-03-29T07:43:54;100533.44;;;5.25;59.76
77149;BME280;66122;47.130;16.844;2023-03-29T07:53:59;100549.00;;;5.34;63.72
77149;BME280;66122;47.130;16.844;2023-03-29T08:04:14;100538.13;;;5.53;61.38
77149;BME280;66122;47.130;16.844;2023-03-29T08:14:35;100527.06;;;5.77;63.71
77149;BME280;66122;47.130;16.844;2023-03-29T08:24:45;100503.78;;;5.60;58.27
77149;BME280;66122;47.130;16.844;2023-03-29T08:34:49;100525.50;;;6.08;55.15
77149;BME280;66122;47.130;16.844;2023-03-29T08:55:12;100516.78;;;6.06;54.49
77149;BME280;66122;47.130;16.844;2023-03-29T09:05:46;100512.69;;;6.65;54.72
77149;BME280;66122;47.130;16.844;2023-03-29T09:16:33;100514.38;;;7.62;51.69
77149;BME280;66122;47.130;16.844;2023-03-29T09:26:52;100510.84;;;7.32;54.64
77149;BME280;66122;47.130;16.844;2023-03-29T09:37:33;100482.78;;;6.99;52.36
77149;BME280;66122;47.130;16.844;2023-03-29T09:47:50;100509.38;;;7.53;54.48
77149;BME280;66122;47.130;16.844;2023-03-29T09:57:57;100498.47;;;8.21;52.34
77149;BME280;66122;47.130;16.844;2023-03-29T10:08:16;100477.25;;;8.50;48.86
77149;BME280;66122;47.130;16.844;2023-03-29T10:18:23;100468.00;;;8.64;47.87
77149;BME280;66122;47.130;16.844;2023-03-29T10:28:29;100457.06;;;8.99;45.63
77149;BME280;66122;47.130;16.844;2023-03-29T10:38:34;100457.88;;;9.24;45.55
77149;BME280;66122;47.130;16.844;2023-03-29T10:48:38;100447.38;;;9.45;40.54
77149;BME280;66122;47.130;16.844;2023-03-29T11:09:13;100396.56;;;10.24;35.77
77149;BME280;66122;47.130;16.844;2023-03-29T11:30:14;100368.22;;;9.84;35.90
77149;BME280;66122;47.130;16.844;2023-03-29T11:40:58;100376.72;;;10.54;33.03
77149;BME280;66122;47.130;16.844;2023-03-29T12:01:20;100340.81;;;11.05;32.93
77149;BME280;66122;47.130;16.844;2023-03-29T12:11:38;100308.56;;;10.76;34.70
77149;BME280;66122;47.130;16.844;2023-03-29T12:21:44;100327.00;;;10.59;35.38
77149;BME280;66122;47.130;16.844;2023-03-29T12:42:19;100314.97;;;10.11;35.66
77149;BME280;66122;47.130;16.844;2023-03-29T13:14:12;100306.81;;;9.10;38.49
77149;BME280;66122;47.130;16.844;2023-03-29T13:56:23;100267.75;;;8.50;43.11
77149;BME280;66122;47.130;16.844;2023-03-29T14:06:30;100250.06;;;8.27;44.13
77149;BME280;66122;47.130;16.844;2023-03-29T14:16:36;100231.97;;;8.16;45.34
77149;BME280;66122;47.130;16.844;2023-03-29T14:26:43;100261.22;;;8.58;46.98
77149;BME280;66122;47.130;16.844;2023-03-29T14:36:48;100242.13;;;8.52;46.42
77149;BME280;66122;47.130;16.844;2023-03-29T14:46:52;100252.97;;;8.44;47.41
77149;BME280;66122;47.130;16.844;2023-03-29T14:56:56;100225.59;;;8.22;47.24
77149;BME280;66122;47.130;16.844;2023-03-29T15:06:59;100237.63;;;8.31;52.82
77149;BME280;66122;47.130;16.844;2023-03-29T15:17:14;100184.00;;;8.05;51.08
77149;BME280;66122;47.130;16.844;2023-03-29T15:27:23;100195.63;;;8.00;49.13
77149;BME280;66122;47.130;16.844;2023-03-29T15:37:27;100180.16;;;7.91;51.04
77149;BME280;66122;47.130;16.844;2023-03-29T15:47:29;100145.34;;;7.79;50.27
77149;BME280;66122;47.130;16.844;2023-03-29T15:57:32;100156.25;;;7.70;53.30
77149;BME280;66122;47.130;16.844;2023-03-29T16:07:35;100136.19;;;7.90;51.13
77149;BME280;66122;47.130;16.844;2023-03-29T16:17:38;100174.94;;;8.12;50.66
77149;BME280;66122;47.130;16.844;2023-03-29T16:27:42;100119.69;;;7.84;50.65
77149;BME280;66122;47.130;16.844;2023-03-29T16:37:45;100133.66;;;7.87;51.12
77149;BME280;66122;47.130;16.844;2023-03-29T16:47:48;100130.03;;;7.66;53.22
77149;BME280;66122;47.130;16.844;2023-03-29T16:57:51;100167.50;;;7.75;54.98
77149;BME280;66122;47.130;16.844;2023-03-29T17:07:53;100158.78;;;7.73;54.49
77149;BME280;66122;47.130;16.844;2023-03-29T17:17:59;100135.63;;;7.57;54.54
77149;BME280;66122;47.130;16.844;2023-03-29T17:28:02;100188.84;;;7.69;53.59
77149;BME280;66122;47.130;16.844;2023-03-29T17:38:05;100142.31;;;7.42;52.93
77149;BME280;66122;47.130;16.844;2023-03-29T17:48:07;100190.19;;;7.56;52.98
77149;BME280;66122;47.130;16.844;2023-03-29T17:58:10;100149.25;;;7.20;53.45
77149;BME280;66122;47.130;16.844;2023-03-29T18:08:13;100139.69;;;6.91;54.35
77149;BME280;66122;47.130;16.844;2023-03-29T18:18:16;100194.56;;;7.04;55.81
77149;BME280;66122;47.130;16.844;2023-03-29T18:28:19;100188.56;;;6.99;56.53
77149;BME280;66122;47.130;16.844;2023-03-29T18:38:21;100235.75;;;7.07;58.03
77149;BME280;66122;47.130;16.844;2023-03-29T18:48:25;100170.25;;;6.41;65.62
77149;BME280;66122;47.130;16.844;2023-03-29T18:58:29;100187.47;;;6.51;61.65
77149;BME280;66122;47.130;16.844;2023-03-29T19:08:32;100188.59;;;6.42;65.54
77149;BME280;66122;47.130;16.844;2023-03-29T19:18:37;100240.91;;;6.84;60.66
77149;BME280;66122;47.130;16.844;2023-03-29T19:28:40;100205.16;;;6.75;58.24
77149;BME280;66122;47.130;16.844;2023-03-29T19:38:46;100204.63;;;6.64;58.07
77149;BME280;66122;47.130;16.844;2023-03-29T19:48:52;100217.16;;;6.56;62.08
77149;BME280;66122;47.130;16.844;2023-03-29T19:59:04;100204.91;;;6.55;60.48
77149;BME280;66122;47.130;16.844;2023-03-29T20:09:36;100224.53;;;6.73;61.51
77149;BME280;66122;47.130;16.844;2023-03-29T20:19:39;100171.19;;;6.38;61.63
77149;BME280;66122;47.130;16.844;2023-03-29T20:29:45;100229.06;;;6.69;60.87
77149;BME280;66122;47.130;16.844;2023-03-29T20:39:49;100172.31;;;6.30;60.42
77149;BME280;66122;47.130;16.844;2023-03-29T20:49:52;100183.19;;;6.48;60.71
77149;BME280;66122;47.130;16.844;2023-03-29T20:59:57;100178.06;;;6.42;61.88
77149;BME280;66122;47.130;16.844;2023-03-29T21:10:01;100164.06;;;6.42;61.36
77149;BME280;66122;47.130;16.844;2023-03-29T21:20:05;100170.53;;;6.32;61.82
77149;BME280;66122;47.130;16.844;2023-03-29T21:30:11;100169.25;;;6.45;61.50
77149;BME280;66122;47.130;16.844;2023-03-29T21:40:14;100162.94;;;6.49;63.64
77149;BME280;66122;47.130;16.844;2023-03-29T21:50:17;100121.22;;;6.09;65.67
77149;BME280;66122;47.130;16.844;2023-03-29T22:00:19;100148.84;;;6.23;66.29
77149;BME280;66122;47.130;16.844;2023-03-29T22:10:23;100149.84;;;6.19;65.34
77149;BME280;66122;47.130;16.844;2023-03-29T22:20:26;100136.50;;;5.96;64.44
77149;BME280;66122;47.130;16.844;2023-03-29T22:30:29;100146.28;;;5.91;64.38
77149;BME280;66122;47.130;16.844;2023-03-29T22:40:32;100133.00;;;5.63;64.48
77149;BME280;66122;47.130;16.844;2023-03-29T22:50:35;100131.88;;;5.41;65.30
77149;BME280;66122;47.130;16.844;2023-03-29T23:00:38;100087.63;;;4.93;66.24
77149;BME280;66122;47.130;16.844;2023-03-29T23:10:41;100124.88;;;5.07;66.79
77149;BME280;66122;47.130;16.844;2023-03-29T23:20:43;100118.94;;;5.01;65.28
77149;BME280;66122;47.130;16.844;2023-03-29T23:31:05;100107.63;;;4.97;68.26
77149;BME280;66122;47.130;16.844;2023-03-29T23:41:12;100106.88;;;4.58;73.44
77149;BME280;66122;47.130;16.844;2023-03-29T23:51:18;100064.50;;;4.38;71.96
